createdAt,value
2022-08-30T00:00:49.582Z,48.50
2022-08-30T00:01:49.538Z,44.47
2022-08-30T00:02:49.630Z,44.79
2022-08-30T00:03:49.617Z,48.02
2022-08-30T00:04:49.502Z,43.51
2022-08-30T00:05:49.503Z,47.37
2022-08-30T00:06:49.531Z,44.79
2022-08-30T00:07:49.495Z,46.25
2022-08-30T00:08:49.505Z,43.02
2022-08-30T00:09:49.465Z,43.02
2022-08-30T00:10:49.477Z,43.02
2022-08-30T00:11:49.465Z,51.24
2022-08-30T00:12:49.441Z,46.25
2022-08-30T00:13:49.420Z,47.21
2022-08-30T00:14:49.422Z,44.15
2022-08-30T00:15:49.471Z,42.70
2022-08-30T00:16:49.422Z,43.34
2022-08-30T00:17:49.427Z,46.08
2022-08-30T00:18:49.375Z,47.86
2022-08-30T00:19:49.378Z,43.99
2022-08-30T00:20:49.346Z,41.89
2022-08-30T00:21:49.360Z,43.67
2022-08-30T00:22:49.332Z,44.96
2022-08-30T00:23:49.352Z,45.12
2022-08-30T00:24:49.326Z,45.76
2022-08-30T00:25:49.314Z,41.57
2022-08-30T00:26:49.301Z,40.93
2022-08-30T00:27:49.326Z,40.61
2022-08-30T00:28:49.319Z,41.09
2022-08-30T00:29:49.290Z,45.44
2022-08-30T00:30:49.314Z,44.31
2022-08-30T00:31:49.255Z,44.47
2022-08-30T00:32:49.240Z,46.89
2022-08-30T00:33:49.255Z,45.92
2022-08-30T00:34:49.214Z,43.67
2022-08-30T00:35:49.235Z,44.63
2022-08-30T00:36:49.217Z,42.86
2022-08-30T00:37:49.179Z,44.79
2022-08-30T00:38:49.173Z,48.50
2022-08-30T00:39:49.161Z,48.18
2022-08-30T00:40:49.170Z,41.09
2022-08-30T00:41:49.165Z,46.73
2022-08-30T00:42:50.625Z,45.12
2022-08-30T00:43:49.137Z,43.83
2022-08-30T00:44:49.131Z,44.31
2022-08-30T00:45:49.176Z,44.31
2022-08-30T00:46:49.123Z,42.70
2022-08-30T00:47:49.108Z,44.96
2022-08-30T00:48:49.063Z,46.08
2022-08-30T00:49:49.076Z,43.99
2022-08-30T00:50:49.062Z,43.18
2022-08-30T00:51:49.092Z,45.76
2022-08-30T00:52:49.028Z,43.34
2022-08-30T00:53:49.046Z,43.18
2022-08-30T00:54:49.023Z,41.73
2022-08-30T00:55:49.033Z,43.02
2022-08-30T00:56:49.120Z,45.76
2022-08-30T00:57:49.015Z,43.99
2022-08-30T00:58:48.987Z,49.95
2022-08-30T00:59:48.971Z,47.05
2022-08-30T01:00:48.973Z,44.79
2022-08-30T01:01:49.019Z,49.15
2022-08-30T01:02:48.954Z,48.02
2022-08-30T01:03:48.923Z,49.31
2022-08-30T01:04:48.919Z,46.89
2022-08-30T01:05:48.903Z,45.92
2022-08-30T01:06:49.920Z,43.34
2022-08-30T01:07:48.890Z,45.76
2022-08-30T01:08:48.880Z,47.70
2022-08-30T01:09:48.890Z,48.18
2022-08-30T01:10:48.855Z,46.73
2022-08-30T01:11:48.903Z,45.92
2022-08-30T01:12:48.831Z,49.63
2022-08-30T01:13:48.848Z,46.89
2022-08-30T01:14:48.832Z,47.37
2022-08-30T01:15:48.834Z,44.15
2022-08-30T01:16:48.813Z,43.02
2022-08-30T01:17:48.875Z,46.73
2022-08-30T01:18:48.827Z,48.50
2022-08-30T01:19:48.800Z,48.02
2022-08-30T01:20:48.766Z,52.69
2022-08-30T01:21:48.767Z,47.21
2022-08-30T01:22:48.738Z,44.79
2022-08-30T01:23:48.759Z,45.44
2022-08-30T01:24:48.716Z,44.31
2022-08-30T01:25:48.736Z,45.60
2022-08-30T01:26:48.691Z,44.15
2022-08-30T01:27:48.715Z,44.15
2022-08-30T01:28:48.685Z,48.98
2022-08-30T01:29:48.663Z,44.96
2022-08-30T01:30:48.744Z,46.73
2022-08-30T01:31:48.698Z,41.41
2022-08-30T01:32:48.635Z,41.41
2022-08-30T01:33:48.618Z,44.15
2022-08-30T01:34:48.608Z,50.11
2022-08-30T01:35:48.628Z,43.02
2022-08-30T01:36:48.596Z,42.86
2022-08-30T01:37:48.617Z,46.08
2022-08-30T01:38:48.582Z,42.70
2022-08-30T01:39:48.577Z,41.89
2022-08-30T01:40:48.564Z,42.38
2022-08-30T01:41:48.556Z,42.54
2022-08-30T01:42:48.552Z,44.47
2022-08-30T01:43:48.528Z,51.72
2022-08-30T01:44:48.526Z,51.24
2022-08-30T01:45:48.542Z,42.38
2022-08-30T01:46:48.499Z,41.89
2022-08-30T01:47:48.501Z,44.31
2022-08-30T01:48:53.107Z,48.02
2022-08-30T01:49:49.486Z,43.02
2022-08-30T01:50:48.459Z,43.51
2022-08-30T01:51:48.447Z,44.31
2022-08-30T01:52:48.445Z,45.44
2022-08-30T01:53:48.446Z,49.47
2022-08-30T01:54:48.436Z,46.57
2022-08-30T01:55:48.412Z,44.96
2022-08-30T01:56:48.407Z,42.38
2022-08-30T01:57:48.380Z,44.47
2022-08-30T01:58:48.371Z,45.76
2022-08-30T01:59:48.383Z,45.44
2022-08-30T02:00:48.394Z,44.96
2022-08-30T02:01:48.412Z,49.15
2022-08-30T02:02:48.339Z,49.63
2022-08-30T02:03:48.394Z,48.98
2022-08-30T02:04:48.307Z,48.02
2022-08-30T02:05:48.321Z,47.70
2022-08-30T02:06:48.295Z,48.34
2022-08-30T02:07:48.289Z,47.86
2022-08-30T02:08:48.279Z,45.28
2022-08-30T02:09:48.253Z,46.73
2022-08-30T02:10:48.254Z,48.02
2022-08-30T02:11:48.254Z,50.27
2022-08-30T02:12:48.242Z,51.88
2022-08-30T02:13:48.216Z,46.73
2022-08-30T02:14:48.223Z,43.99
2022-08-30T02:15:48.198Z,44.63
2022-08-30T02:16:48.287Z,43.99
2022-08-30T02:17:48.170Z,44.47
2022-08-30T02:18:48.207Z,48.50
2022-08-30T02:19:48.190Z,49.79
2022-08-30T02:20:48.145Z,48.50
2022-08-30T02:21:48.198Z,45.92
2022-08-30T02:22:49.507Z,48.18
2022-08-30T02:23:48.141Z,49.31
2022-08-30T02:24:48.113Z,48.98
2022-08-30T02:25:48.098Z,48.02
2022-08-30T02:26:48.074Z,51.40
2022-08-30T02:27:49.081Z,50.92
2022-08-30T02:28:50.067Z,46.73
2022-08-30T02:29:48.074Z,51.40
2022-08-30T02:30:48.112Z,49.95
2022-08-30T02:31:48.064Z,49.79
2022-08-30T02:32:48.022Z,48.98
2022-08-30T02:33:48.088Z,48.98
2022-08-30T02:34:48.010Z,46.08
2022-08-30T02:35:48.005Z,47.53
2022-08-30T02:36:48.003Z,47.05
2022-08-30T02:37:47.987Z,48.18
2022-08-30T02:38:47.989Z,48.98
2022-08-30T02:39:47.966Z,48.18
2022-08-30T02:40:47.946Z,48.34
2022-08-30T02:41:47.956Z,49.47
2022-08-30T02:42:47.938Z,49.15
2022-08-30T02:43:47.930Z,49.95
2022-08-30T02:44:47.911Z,48.34
2022-08-30T02:45:47.937Z,48.02
2022-08-30T02:46:47.955Z,52.69
2022-08-30T02:47:48.887Z,51.40
2022-08-30T02:48:47.895Z,50.27
2022-08-30T02:49:47.858Z,49.79
2022-08-30T02:50:47.842Z,50.76
2022-08-30T02:51:47.850Z,49.31
2022-08-30T02:52:48.375Z,55.59
2022-08-30T02:53:47.845Z,51.40
2022-08-30T02:54:47.822Z,51.56
2022-08-30T02:55:47.812Z,53.01
2022-08-30T02:56:47.959Z,52.21
2022-08-30T02:57:47.781Z,49.47
2022-08-30T02:58:47.781Z,48.66
2022-08-30T02:59:47.751Z,48.34
2022-08-30T03:00:47.830Z,48.34
2022-08-30T03:01:47.760Z,49.63
2022-08-30T03:02:47.716Z,52.37
2022-08-30T03:03:47.731Z,48.66
2022-08-30T03:04:47.707Z,49.47
2022-08-30T03:05:47.784Z,52.21
2022-08-30T03:06:47.688Z,52.05
2022-08-30T03:07:47.695Z,51.24
2022-08-30T03:08:47.674Z,51.24
2022-08-30T03:09:47.646Z,54.14
2022-08-30T03:10:47.657Z,54.95
2022-08-30T03:11:47.644Z,53.17
2022-08-30T03:12:47.623Z,49.79
2022-08-30T03:13:47.600Z,53.33
2022-08-30T03:14:47.597Z,52.37
2022-08-30T03:15:47.602Z,54.30
2022-08-30T03:16:47.582Z,49.31
2022-08-30T03:17:47.579Z,49.95
2022-08-30T03:18:47.569Z,54.62
2022-08-30T03:19:47.554Z,54.95
2022-08-30T03:20:54.177Z,53.17
2022-08-30T03:21:48.543Z,49.95
2022-08-30T03:22:47.518Z,52.69
2022-08-30T03:23:47.508Z,49.15
2022-08-30T03:24:47.490Z,50.60
2022-08-30T03:25:47.473Z,52.21
2022-08-30T03:26:48.476Z,52.53
2022-08-30T03:27:47.510Z,53.01
2022-08-30T03:28:47.456Z,55.75
2022-08-30T03:29:47.435Z,56.40
2022-08-30T03:30:47.443Z,55.75
2022-08-30T03:31:52.866Z,54.46
2022-08-30T03:32:48.441Z,55.59
2022-08-30T03:33:47.391Z,55.43
2022-08-30T03:34:47.389Z,55.43
2022-08-30T03:35:47.386Z,55.11
2022-08-30T03:36:47.366Z,56.72
2022-08-30T03:37:47.384Z,54.14
2022-08-30T03:38:47.370Z,53.98
2022-08-30T03:39:47.327Z,57.04
2022-08-30T03:40:47.342Z,55.43
2022-08-30T03:41:47.338Z,51.40
2022-08-30T03:42:47.306Z,53.17
2022-08-30T03:43:47.297Z,51.88
2022-08-30T03:44:47.282Z,52.53
2022-08-30T03:45:47.318Z,53.82
2022-08-30T03:46:47.274Z,53.82
2022-08-30T03:47:47.260Z,56.07
2022-08-30T03:48:47.261Z,54.95
2022-08-30T03:49:47.244Z,54.30
2022-08-30T03:50:47.218Z,53.01
2022-08-30T03:51:47.260Z,55.75
2022-08-30T03:52:47.213Z,57.69
2022-08-30T03:53:47.207Z,56.07
2022-08-30T03:54:47.185Z,52.53
2022-08-30T03:55:47.182Z,53.33
2022-08-30T03:56:47.166Z,53.01
2022-08-30T03:57:47.171Z,53.66
2022-08-30T03:58:47.156Z,53.17
2022-08-30T03:59:47.153Z,54.62
2022-08-30T04:00:47.147Z,53.66
2022-08-30T04:01:47.137Z,52.53
2022-08-30T04:02:47.133Z,52.69
2022-08-30T04:03:47.100Z,54.30
2022-08-30T04:04:47.106Z,54.79
2022-08-30T04:05:47.071Z,54.62
2022-08-30T04:06:47.070Z,53.82
2022-08-30T04:07:47.051Z,54.62
2022-08-30T04:08:47.091Z,53.98
2022-08-30T04:09:47.081Z,54.95
2022-08-30T04:10:47.031Z,57.69
2022-08-30T04:11:47.060Z,54.30
2022-08-30T04:12:49.724Z,54.95
2022-08-30T04:13:48.138Z,56.56
2022-08-30T04:14:46.983Z,53.82
2022-08-30T04:15:46.980Z,55.27
2022-08-30T04:16:47.096Z,57.52
2022-08-30T04:17:46.945Z,56.56
2022-08-30T04:18:46.947Z,56.07
2022-08-30T04:19:46.956Z,56.07
2022-08-30T04:20:46.927Z,57.04
2022-08-30T04:21:47.918Z,57.20
2022-08-30T04:22:46.957Z,56.88
2022-08-30T04:23:46.925Z,56.56
2022-08-30T04:24:46.878Z,55.43
2022-08-30T04:25:46.897Z,54.46
2022-08-30T04:26:46.873Z,53.01
2022-08-30T04:27:46.847Z,54.62
2022-08-30T04:28:46.841Z,55.11
2022-08-30T04:29:46.841Z,56.88
2022-08-30T04:30:46.851Z,54.95
2022-08-30T04:31:46.908Z,54.95
2022-08-30T04:32:46.809Z,51.72
2022-08-30T04:33:46.792Z,55.75
2022-08-30T04:34:46.809Z,55.27
2022-08-30T04:35:46.804Z,56.24
2022-08-30T04:36:48.387Z,55.59
2022-08-30T04:37:46.770Z,54.46
2022-08-30T04:38:46.765Z,54.62
2022-08-30T04:39:46.779Z,52.85
2022-08-30T04:40:46.773Z,54.30
2022-08-30T04:41:46.711Z,54.14
2022-08-30T04:42:46.764Z,57.36
2022-08-30T04:43:46.725Z,57.20
2022-08-30T04:44:46.701Z,57.36
2022-08-30T04:45:46.736Z,56.56
2022-08-30T04:46:46.686Z,52.69
2022-08-30T04:47:46.678Z,53.66
2022-08-30T04:48:46.681Z,53.82
2022-08-30T04:49:46.657Z,54.30
2022-08-30T04:50:46.659Z,53.98
2022-08-30T04:51:46.619Z,54.62
2022-08-30T04:52:46.624Z,53.17
2022-08-30T04:53:46.679Z,53.82
2022-08-30T04:54:46.602Z,56.56
2022-08-30T04:55:46.581Z,57.69
2022-08-30T04:56:46.571Z,56.56
2022-08-30T04:57:46.565Z,56.88
2022-08-30T04:58:46.573Z,53.82
2022-08-30T04:59:46.532Z,55.91
2022-08-30T05:00:46.589Z,55.91
2022-08-30T05:01:46.674Z,57.52
2022-08-30T05:02:46.588Z,57.20
2022-08-30T05:03:46.507Z,57.20
2022-08-30T05:04:46.557Z,58.81
2022-08-30T05:05:46.490Z,58.01
2022-08-30T05:06:46.468Z,57.20
2022-08-30T05:07:46.459Z,55.27
2022-08-30T05:08:46.863Z,56.56
2022-08-30T05:09:46.471Z,56.88
2022-08-30T05:10:46.442Z,56.56
2022-08-30T05:11:46.422Z,54.95
2022-08-30T05:12:46.405Z,53.82
2022-08-30T05:13:46.415Z,54.46
2022-08-30T05:14:46.411Z,54.79
2022-08-30T05:15:46.381Z,55.43
2022-08-30T05:16:46.490Z,53.01
2022-08-30T05:17:46.371Z,55.11
2022-08-30T05:18:46.362Z,53.66
2022-08-30T05:19:46.346Z,56.56
2022-08-30T05:20:46.328Z,54.46
2022-08-30T05:21:46.315Z,54.14
2022-08-30T05:22:46.331Z,54.62
2022-08-30T05:23:46.296Z,52.37
2022-08-30T05:24:46.305Z,53.17
2022-08-30T05:25:46.273Z,51.88
2022-08-30T05:27:46.279Z,54.30
2022-08-30T05:28:46.243Z,53.01
2022-08-30T05:29:46.241Z,53.17
2022-08-30T05:30:46.230Z,53.50
2022-08-30T05:31:46.281Z,55.43
2022-08-30T05:32:46.212Z,56.24
2022-08-30T05:33:46.212Z,56.56
2022-08-30T05:34:46.215Z,55.75
2022-08-30T05:35:46.181Z,53.82
2022-08-30T05:36:46.164Z,53.33
2022-08-30T05:37:46.164Z,52.53
2022-08-30T05:38:46.141Z,55.43
2022-08-30T05:39:51.808Z,56.07
2022-08-30T05:40:46.279Z,54.46
2022-08-30T05:41:46.118Z,53.82
2022-08-30T05:42:46.110Z,53.17
2022-08-30T05:43:46.103Z,54.46
2022-08-30T05:44:46.092Z,54.79
2022-08-30T05:45:46.096Z,55.75
2022-08-30T05:46:46.069Z,54.46
2022-08-30T05:47:46.077Z,52.85
2022-08-30T05:48:46.069Z,53.82
2022-08-30T05:49:46.060Z,53.98
2022-08-30T05:50:46.032Z,55.91
2022-08-30T05:51:46.048Z,52.85
2022-08-30T05:52:46.004Z,54.46
2022-08-30T05:53:46.009Z,54.46
2022-08-30T05:54:45.991Z,54.46
2022-08-30T05:55:45.988Z,53.98
2022-08-30T05:56:45.986Z,53.98
2022-08-30T05:57:45.963Z,54.14
2022-08-30T05:58:45.960Z,54.14
2022-08-30T05:59:45.963Z,54.46
2022-08-30T06:00:45.932Z,58.49
2022-08-30T06:01:46.011Z,52.21
2022-08-30T06:02:45.969Z,52.69
2022-08-30T06:03:45.911Z,53.98
2022-08-30T06:04:45.897Z,52.05
2022-08-30T06:06:45.914Z,56.56
2022-08-30T06:07:45.861Z,55.75
2022-08-30T06:08:45.835Z,54.30
2022-08-30T06:09:45.852Z,55.59
2022-08-30T06:10:45.848Z,53.66
2022-08-30T06:11:45.827Z,54.14
2022-08-30T06:12:45.802Z,54.79
2022-08-30T06:13:45.812Z,56.56
2022-08-30T06:14:45.810Z,54.79
2022-08-30T06:15:45.892Z,54.95
2022-08-30T06:16:45.976Z,55.27
2022-08-30T06:17:45.768Z,55.43
2022-08-30T06:18:45.729Z,53.98
2022-08-30T06:19:45.726Z,54.46
2022-08-30T06:20:46.713Z,50.60
2022-08-30T06:21:45.734Z,52.53
2022-08-30T06:22:45.704Z,55.43
2022-08-30T06:23:45.693Z,55.27
2022-08-30T06:24:58.759Z,55.27
2022-08-30T06:25:47.671Z,51.88
2022-08-30T06:26:45.655Z,51.40
2022-08-30T06:27:45.669Z,52.53
2022-08-30T06:28:45.631Z,52.53
2022-08-30T06:29:45.635Z,52.37
2022-08-30T06:30:45.619Z,50.60
2022-08-30T06:31:45.642Z,52.85
2022-08-30T06:32:45.613Z,48.50
2022-08-30T06:33:45.586Z,49.79
2022-08-30T06:34:45.578Z,52.37
2022-08-30T06:35:58.091Z,53.17
2022-08-30T06:36:46.561Z,53.01
2022-08-30T06:37:45.568Z,52.37
2022-08-30T06:38:45.535Z,50.60
2022-08-30T06:39:45.532Z,51.40
2022-08-30T06:40:45.598Z,52.85
2022-08-30T06:41:45.513Z,49.79
2022-08-30T06:42:45.516Z,51.88
2022-08-30T06:43:48.891Z,51.40
2022-08-30T06:44:46.502Z,47.05
2022-08-30T06:45:45.486Z,51.40
2022-08-30T06:46:45.527Z,52.53
2022-08-30T06:47:45.461Z,53.98
2022-08-30T06:48:48.174Z,53.66
2022-08-30T06:49:45.445Z,53.66
2022-08-30T06:50:45.451Z,51.72
2022-08-30T06:51:45.411Z,52.53
2022-08-30T06:52:45.403Z,52.85
2022-08-30T06:53:45.386Z,53.33
2022-08-30T06:54:46.386Z,57.04
2022-08-30T06:55:45.387Z,54.30
2022-08-30T06:56:58.504Z,53.82
2022-08-30T06:57:47.365Z,54.30
2022-08-30T06:58:45.373Z,53.17
2022-08-30T06:59:45.361Z,53.82
2022-08-30T07:00:45.323Z,52.53
2022-08-30T07:01:45.352Z,53.66
2022-08-30T07:02:45.377Z,54.14
2022-08-30T07:03:45.325Z,53.33
2022-08-30T07:04:45.289Z,52.37
2022-08-30T07:05:45.278Z,52.21
2022-08-30T07:06:45.269Z,53.82
2022-08-30T07:07:45.269Z,54.30
2022-08-30T07:08:45.253Z,52.53
2022-08-30T07:09:45.263Z,54.79
2022-08-30T07:10:45.228Z,56.72
2022-08-30T07:11:45.212Z,58.17
2022-08-30T07:12:45.196Z,51.40
2022-08-30T07:13:45.207Z,50.92
2022-08-30T07:14:45.208Z,48.34
2022-08-30T07:15:45.200Z,52.37
2022-08-30T07:16:45.165Z,53.98
2022-08-30T07:17:45.172Z,55.27
2022-08-30T07:18:45.155Z,55.43
2022-08-30T07:19:45.139Z,55.27
2022-08-30T07:20:45.131Z,56.56
2022-08-30T07:21:45.138Z,51.56
2022-08-30T07:22:45.121Z,51.40
2022-08-30T07:23:45.108Z,50.76
2022-08-30T07:24:45.084Z,49.79
2022-08-30T07:25:45.070Z,50.27
2022-08-30T07:26:45.086Z,49.15
2022-08-30T07:27:45.060Z,53.33
2022-08-30T07:28:45.233Z,54.79
2022-08-30T07:29:45.060Z,54.62
2022-08-30T07:30:45.025Z,51.40
2022-08-30T07:31:45.012Z,50.11
2022-08-30T07:32:45.012Z,53.01
2022-08-30T07:33:45.019Z,51.56
2022-08-30T07:34:44.990Z,52.05
2022-08-30T07:35:44.984Z,50.92
2022-08-30T07:36:44.970Z,50.11
2022-08-30T07:37:44.967Z,50.60
2022-08-30T07:38:44.943Z,50.76
2022-08-30T07:39:47.736Z,50.43
2022-08-30T07:40:45.973Z,50.92
2022-08-30T07:41:44.921Z,51.72
2022-08-30T07:42:44.907Z,50.60
2022-08-30T07:43:44.894Z,48.82
2022-08-30T07:44:44.884Z,50.76
2022-08-30T07:45:44.901Z,47.86
2022-08-30T07:46:44.966Z,53.01
2022-08-30T07:47:44.855Z,52.05
2022-08-30T07:48:44.852Z,52.53
2022-08-30T07:49:44.831Z,48.98
2022-08-30T07:50:44.827Z,52.69
2022-08-30T07:51:44.832Z,51.40
2022-08-30T07:52:44.828Z,49.15
2022-08-30T07:53:44.796Z,49.47
2022-08-30T07:54:44.803Z,53.98
2022-08-30T07:55:44.782Z,49.47
2022-08-30T07:56:44.784Z,51.56
2022-08-30T07:57:44.783Z,52.37
2022-08-30T07:58:44.750Z,52.05
2022-08-30T07:59:44.747Z,49.79
2022-08-30T08:00:44.726Z,51.08
2022-08-30T08:01:44.797Z,51.88
2022-08-30T08:02:44.809Z,50.43
2022-08-30T08:03:44.711Z,51.88
2022-08-30T08:04:44.705Z,53.66
2022-08-30T08:05:44.687Z,52.53
2022-08-30T08:06:44.678Z,51.88
2022-08-30T08:07:44.666Z,52.37
2022-08-30T08:08:44.672Z,50.76
2022-08-30T08:09:44.647Z,49.31
2022-08-30T08:10:44.628Z,51.24
2022-08-30T08:11:44.643Z,50.76
2022-08-30T08:12:44.611Z,51.40
2022-08-30T08:14:00.620Z,48.82
2022-08-30T08:14:45.604Z,48.50
2022-08-30T08:15:44.633Z,54.46
2022-08-30T08:16:44.581Z,50.27
2022-08-30T08:17:44.574Z,50.60
2022-08-30T08:18:44.570Z,49.31
2022-08-30T08:19:44.563Z,50.60
2022-08-30T08:20:44.559Z,49.31
2022-08-30T08:21:44.541Z,51.24
2022-08-30T08:22:44.529Z,50.60
2022-08-30T08:23:44.546Z,51.24
2022-08-30T08:24:44.522Z,48.82
2022-08-30T08:25:44.510Z,48.34
2022-08-30T08:26:45.426Z,47.70
2022-08-30T08:27:44.471Z,51.72
2022-08-30T08:28:44.471Z,48.18
2022-08-30T08:29:44.504Z,50.76
2022-08-30T08:30:48.129Z,48.98
2022-08-30T08:31:45.471Z,49.79
2022-08-30T08:32:44.428Z,50.11
2022-08-30T08:33:44.418Z,50.11
2022-08-30T08:34:44.426Z,48.34
2022-08-30T08:35:44.529Z,48.50
2022-08-30T08:36:44.409Z,48.02
2022-08-30T08:37:44.395Z,50.76
2022-08-30T08:38:44.389Z,50.27
2022-08-30T08:39:44.375Z,49.79
2022-08-30T08:40:44.390Z,50.60
2022-08-30T08:41:44.402Z,48.82
2022-08-30T08:42:44.342Z,48.18
2022-08-30T08:43:44.325Z,46.57
2022-08-30T08:44:44.387Z,48.50
2022-08-30T08:45:44.318Z,51.24
2022-08-30T08:46:45.496Z,49.63
2022-08-30T08:47:44.319Z,50.11
2022-08-30T08:48:58.980Z,51.56
2022-08-30T08:49:45.286Z,50.60
2022-08-30T08:50:44.275Z,51.24
2022-08-30T08:51:44.285Z,48.50
2022-08-30T08:52:44.246Z,51.24
2022-08-30T08:53:46.583Z,49.79
2022-08-30T08:54:45.237Z,49.95
2022-08-30T08:55:44.275Z,49.15
2022-08-30T08:56:44.226Z,48.02
2022-08-30T08:57:44.240Z,52.53
2022-08-30T08:58:44.206Z,49.95
2022-08-30T08:59:44.195Z,51.88
2022-08-30T09:00:44.173Z,49.63
2022-08-30T09:01:44.211Z,51.08
2022-08-30T09:02:44.179Z,49.31
2022-08-30T09:03:44.147Z,50.43
2022-08-30T09:04:44.190Z,50.92
2022-08-30T09:05:44.137Z,50.60
2022-08-30T09:06:45.388Z,51.24
2022-08-30T09:07:44.140Z,48.98
2022-08-30T09:08:44.101Z,49.47
2022-08-30T09:09:44.090Z,51.72
2022-08-30T09:10:51.378Z,49.79
2022-08-30T09:11:46.075Z,49.47
2022-08-30T09:12:44.073Z,47.70
2022-08-30T09:13:44.081Z,48.50
2022-08-30T09:14:45.996Z,49.63
2022-08-30T09:15:44.077Z,50.92
2022-08-30T09:16:44.019Z,51.24
2022-08-30T09:17:44.015Z,51.08
2022-08-30T09:18:45.466Z,50.43
2022-08-30T09:19:44.061Z,51.08
2022-08-30T09:20:43.995Z,49.63
2022-08-30T09:21:43.993Z,49.63
2022-08-30T09:22:46.537Z,49.31
2022-08-30T09:23:43.978Z,49.79
2022-08-30T09:24:43.950Z,49.47
2022-08-30T09:25:43.941Z,50.11
2022-08-30T09:26:43.923Z,52.21
2022-08-30T09:27:43.927Z,49.95
2022-08-30T09:28:43.937Z,49.79
2022-08-30T09:29:43.902Z,51.24
2022-08-30T09:30:43.930Z,50.11
2022-08-30T09:31:43.890Z,49.47
2022-08-30T09:32:43.875Z,48.98
2022-08-30T09:33:43.863Z,49.79
2022-08-30T09:34:43.878Z,48.66
2022-08-30T09:35:43.837Z,50.11
2022-08-30T09:36:43.853Z,51.08
2022-08-30T09:37:43.841Z,49.47
2022-08-30T09:38:43.818Z,52.05
2022-08-30T09:39:43.824Z,53.50
2022-08-30T09:40:43.850Z,50.92
2022-08-30T09:41:43.795Z,51.56
2022-08-30T09:42:43.771Z,51.88
2022-08-30T09:43:43.791Z,51.56
2022-08-30T09:44:43.756Z,54.14
2022-08-30T09:45:43.806Z,50.27
2022-08-30T09:46:43.730Z,50.92
2022-08-30T09:47:43.737Z,51.56
2022-08-30T09:48:44.726Z,51.88
2022-08-30T09:49:43.767Z,51.72
2022-08-30T09:50:43.698Z,50.92
2022-08-30T09:51:43.694Z,52.05
2022-08-30T09:52:43.676Z,51.08
2022-08-30T09:53:55.699Z,50.60
2022-08-30T09:54:44.679Z,52.69
2022-08-30T09:55:43.663Z,50.76
2022-08-30T09:56:43.647Z,52.37
2022-08-30T09:57:43.641Z,51.88
2022-08-30T09:58:43.646Z,52.37
2022-08-30T09:59:43.617Z,52.53
2022-08-30T10:00:43.613Z,49.95
2022-08-30T10:01:43.644Z,49.79
2022-08-30T10:02:43.625Z,50.76
2022-08-30T10:03:43.584Z,52.85
2022-08-30T10:04:43.566Z,53.66
2022-08-30T10:05:43.557Z,51.88
2022-08-30T10:06:43.563Z,51.72
2022-08-30T10:07:43.567Z,50.27
2022-08-30T10:08:43.789Z,51.88
2022-08-30T10:09:43.531Z,52.05
2022-08-30T10:10:45.890Z,48.02
2022-08-30T10:11:44.535Z,49.31
2022-08-30T10:12:43.504Z,50.76
2022-08-30T10:13:43.521Z,49.95
2022-08-30T10:14:43.506Z,49.31
2022-08-30T10:15:43.467Z,48.50
2022-08-30T10:16:43.561Z,50.60
2022-08-30T10:17:43.513Z,48.34
2022-08-30T10:18:43.523Z,48.82
2022-08-30T10:19:43.465Z,47.37
2022-08-30T10:20:43.453Z,49.63
2022-08-30T10:21:43.423Z,50.11
2022-08-30T10:22:43.393Z,48.98
2022-08-30T10:23:43.394Z,47.53
2022-08-30T10:24:43.933Z,48.66
2022-08-30T10:25:43.406Z,50.60
2022-08-30T10:26:43.378Z,46.89
2022-08-30T10:27:43.357Z,48.02
2022-08-30T10:28:43.350Z,48.66
2022-08-30T10:29:43.497Z,50.27
2022-08-30T10:30:43.326Z,47.86
2022-08-30T10:31:43.327Z,49.95
2022-08-30T10:32:43.304Z,49.31
2022-08-30T10:33:43.309Z,52.05
2022-08-30T10:34:43.295Z,51.08
2022-08-30T10:35:43.277Z,49.79
2022-08-30T10:36:43.283Z,47.21
2022-08-30T10:37:43.261Z,49.47
2022-08-30T10:38:43.258Z,47.37
2022-08-30T10:39:43.243Z,48.82
2022-08-30T10:40:43.288Z,49.95
2022-08-30T10:41:43.239Z,47.86
2022-08-30T10:42:43.209Z,51.40
2022-08-30T10:43:43.194Z,48.82
2022-08-30T10:44:43.183Z,49.79
2022-08-30T10:45:43.194Z,51.08
2022-08-30T10:46:43.163Z,49.15
2022-08-30T10:47:43.178Z,46.57
2022-08-30T10:48:44.509Z,45.76
2022-08-30T10:49:43.148Z,50.92
2022-08-30T10:50:43.123Z,49.15
2022-08-30T10:51:43.120Z,51.88
2022-08-30T10:52:43.109Z,49.79
2022-08-30T10:53:43.114Z,49.79
2022-08-30T10:54:43.107Z,49.63
2022-08-30T10:55:45.765Z,52.69
2022-08-30T10:56:44.084Z,50.11
2022-08-30T10:58:44.132Z,49.31
2022-08-30T10:59:43.063Z,50.11
2022-08-30T11:00:43.085Z,48.98
2022-08-30T11:01:46.613Z,49.15
2022-08-30T11:02:43.016Z,47.21
2022-08-30T11:03:42.999Z,50.92
2022-08-30T11:04:45.514Z,52.53
2022-08-30T11:05:42.998Z,51.88
2022-08-30T11:06:42.974Z,50.27
2022-08-30T11:07:42.966Z,51.56
2022-08-30T11:08:42.968Z,48.02
2022-08-30T11:09:42.952Z,50.43
2022-08-30T11:10:42.962Z,49.79
2022-08-30T11:11:43.925Z,50.27
2022-08-30T11:12:42.922Z,50.11
2022-08-30T11:13:42.907Z,49.31
2022-08-30T11:14:43.267Z,50.27
2022-08-30T11:15:43.902Z,48.18
2022-08-30T11:16:43.302Z,51.08
2022-08-30T11:17:42.905Z,53.50
2022-08-30T11:18:43.356Z,51.56
2022-08-30T11:19:42.855Z,51.24
2022-08-30T11:20:42.848Z,48.18
2022-08-30T11:21:42.844Z,52.37
2022-08-30T11:22:42.853Z,48.66
2022-08-30T11:23:42.812Z,48.34
2022-08-30T11:24:42.803Z,51.08
2022-08-30T11:25:42.790Z,52.85
2022-08-30T11:26:42.781Z,48.66
2022-08-30T11:27:42.803Z,49.31
2022-08-30T11:28:42.763Z,51.24
2022-08-30T11:29:42.753Z,50.43
2022-08-30T11:30:42.757Z,52.85
2022-08-30T11:31:42.731Z,48.18
2022-08-30T11:32:42.715Z,50.27
2022-08-30T11:33:42.722Z,45.12
2022-08-30T11:34:42.710Z,48.18
2022-08-30T11:35:47.349Z,48.82
2022-08-30T11:36:46.203Z,50.11
2022-08-30T11:37:42.661Z,48.50
2022-08-30T11:38:42.669Z,47.86
2022-08-30T11:39:42.655Z,45.44
2022-08-30T11:40:42.657Z,47.21
2022-08-30T11:41:46.082Z,49.79
2022-08-30T11:42:44.806Z,52.53
2022-08-30T11:43:42.616Z,46.41
2022-08-30T11:44:42.609Z,48.34
2022-08-30T11:45:42.662Z,52.05
2022-08-30T11:46:42.579Z,51.56
2022-08-30T11:47:42.565Z,48.50
2022-08-30T11:48:51.363Z,47.86
2022-08-30T11:49:42.571Z,46.41
2022-08-30T11:50:46.445Z,44.15
2022-08-30T11:51:43.681Z,48.34
2022-08-30T11:52:42.529Z,48.66
2022-08-30T11:53:42.519Z,47.70
2022-08-30T11:54:42.509Z,49.31
2022-08-30T11:55:42.501Z,47.53
2022-08-30T11:56:42.503Z,49.15
2022-08-30T11:57:42.487Z,51.56
2022-08-30T11:58:43.946Z,49.63
2022-08-30T11:59:42.487Z,47.53
2022-08-30T12:00:42.455Z,47.70
2022-08-30T12:01:50.262Z,47.05
2022-08-30T12:02:42.520Z,46.57
2022-08-30T12:03:42.523Z,46.89
2022-08-30T12:04:42.423Z,44.47
2022-08-30T12:05:42.394Z,45.92
2022-08-30T12:06:43.175Z,47.37
2022-08-30T12:07:42.374Z,48.98
2022-08-30T12:08:42.484Z,47.05
2022-08-30T12:09:42.382Z,46.41
2022-08-30T12:10:42.346Z,47.70
2022-08-30T12:11:42.333Z,49.31
2022-08-30T12:12:42.338Z,49.79
2022-08-30T12:13:42.317Z,49.31
2022-08-30T12:14:42.343Z,49.79
2022-08-30T12:15:42.292Z,52.05
2022-08-30T12:16:42.286Z,50.60
2022-08-30T12:17:42.305Z,49.63
2022-08-30T12:18:42.270Z,47.86
2022-08-30T12:19:44.650Z,52.37
2022-08-30T12:20:43.246Z,50.92
2022-08-30T12:21:44.703Z,48.98
2022-08-30T12:22:42.264Z,47.53
2022-08-30T12:23:44.418Z,48.82
2022-08-30T12:24:42.206Z,50.43
2022-08-30T12:25:42.205Z,50.92
2022-08-30T12:26:42.180Z,51.88
2022-08-30T12:27:42.189Z,50.11
2022-08-30T12:28:42.280Z,49.31
2022-08-30T12:29:42.165Z,48.66
2022-08-30T12:30:42.166Z,48.34
2022-08-30T12:31:42.179Z,48.34
2022-08-30T12:32:42.137Z,50.27
2022-08-30T12:33:42.127Z,48.66
2022-08-30T12:34:42.112Z,48.50
2022-08-30T12:35:42.137Z,48.66
2022-08-30T12:36:42.093Z,48.18
2022-08-30T12:37:42.266Z,48.98
2022-08-30T12:38:42.082Z,48.02
2022-08-30T12:39:42.071Z,52.05
2022-08-30T12:40:42.097Z,50.43
2022-08-30T12:41:43.500Z,52.05
2022-08-30T12:42:42.064Z,49.95
2022-08-30T12:43:42.035Z,51.40
2022-08-30T12:44:42.043Z,50.60
2022-08-30T12:45:42.051Z,50.11
2022-08-30T12:46:43.005Z,51.24
2022-08-30T12:47:41.986Z,53.33
2022-08-30T12:48:41.988Z,50.11
2022-08-30T12:49:41.984Z,47.21
2022-08-30T12:50:41.961Z,50.11
2022-08-30T12:51:41.944Z,47.86
2022-08-30T12:52:41.964Z,50.92
2022-08-30T12:53:42.003Z,50.76
2022-08-30T12:54:42.378Z,51.40
2022-08-30T12:55:41.912Z,50.60